LRAR - ARAD

Compiled: 21:30:57 on 19/01/2018

Latest METAR/SPECI Reports

METAR LRAR 192100Z AUTO 23006KT 9999 R09////// R27/P2000 NCD ///// Q1012 REUP=

Previous reports

METAR LRAR 192030Z AUTO 23006KT 9999 R09////// R27/P2000 -FZDZ NCD 04/04 Q1012=
METAR LRAR 192000Z 20006KT 9999 BKN019 04/04 Q1012 R09/29//95=
METAR LRAR 191930Z 20005KT 9999 BKN020 04/04 Q1011 R09/29//95=
METAR LRAR 191900Z 20004KT 9999 FEW014 OVC020 04/04 Q1011 R09/29//95=

Latest TAF report

TAF AMD LRAR 192002Z 1920/2003 CNL=

Valid WARNINGS

No valid warnings for LRAR